Time;durP1;ratioP1;P1;durP2;ratioP2;P2;SDS_P1;SDS_P2;PMS_P1;PMS_P2;Temp;Humidity;BMP_temperature;BMP_pressure;BME280_temperature;BME280_humidity;BME280_pressure;Samples;Min_cycle;Max_cycle;Signal;HPM_P1;HPM_P2
2022/10/31 00:01:25;;;;;;;6.67;2.05;;;;;;;9.67;69.23;99152.16;1785631;80;21044;-41
2022/10/31 00:03:54;;;;;;;9.40;2.30;;;;;;;9.63;69.50;99159.42;1785815;80;20967;-41
2022/10/31 00:06:21;;;;;;;5.75;1.85;;;;;;;9.61;69.60;99158.98;1785685;80;21059;-41
2022/10/31 00:08:59;;;;;;;11.90;2.52;;;;;;;9.66;69.70;99155.20;1786165;79;21530;-41
2022/10/31 00:11:27;;;;;;;9.68;2.22;;;;;;;9.68;69.72;99146.95;1780776;80;20983;-41
2022/10/31 00:13:54;;;;;;;7.45;2.37;;;;;;;9.68;69.90;99151.02;1785682;80;21003;-40
2022/10/31 00:16:24;;;;;;;5.95;1.82;;;;;;;9.69;69.92;99152.56;1785735;80;21019;-41
2022/10/31 00:18:56;;;;;;;5.05;2.05;;;;;;;9.71;70.08;99156.27;1786243;80;21542;-40
2022/10/31 00:21:25;;;;;;;5.78;2.10;;;;;;;9.73;70.08;99149.34;1785892;79;20976;-40
2022/10/31 00:23:53;;;;;;;7.12;2.50;;;;;;;9.80;70.00;99152.20;1785832;79;20928;-41
2022/10/31 00:26:21;;;;;;;6.75;2.05;;;;;;;9.86;69.86;99148.06;1786000;79;21023;-41
2022/10/31 00:28:48;;;;;;;9.03;2.30;;;;;;;9.84;69.94;99147.63;1785866;80;21068;-41
2022/10/31 00:31:16;;;;;;;5.87;2.40;;;;;;;9.79;70.05;99147.91;1786064;79;20960;-41
2022/10/31 00:33:44;;;;;;;11.60;2.33;;;;;;;9.74;70.17;99150.13;1786112;80;21123;-41
2022/10/31 00:36:14;;;;;;;5.75;1.95;;;;;;;9.73;70.24;99147.99;1785828;80;21024;-41
2022/10/31 00:38:42;;;;;;;7.92;2.27;;;;;;;9.74;70.22;99140.09;1786231;80;21102;-41
2022/10/31 00:41:10;;;;;;;5.37;1.57;;;;;;;9.76;70.24;99138.38;1785920;80;21074;-40
2022/10/31 00:43:39;;;;;;;;;;;;;;;9.72;70.29;99143.74;1788375;80;21044;-41
2022/10/31 00:46:06;;;;;;;7.35;1.82;;;;;;;9.67;70.48;99146.73;1786144;80;21833;-41
2022/10/31 00:48:33;;;;;;;10.03;1.95;;;;;;;9.51;70.94;99154.15;1785735;80;21592;-41
2022/10/31 00:51:00;;;;;;;7.47;2.12;;;;;;;9.51;71.00;99154.15;1786008;79;21012;-41
2022/10/31 00:53:27;;;;;;;6.20;1.92;;;;;;;9.55;71.08;99161.77;1785762;80;21604;-41
2022/10/31 00:55:54;;;;;;;6.35;2.20;;;;;;;9.57;71.03;99160.28;1785808;80;21082;-41
2022/10/31 00:58:21;;;;;;;9.50;2.40;;;;;;;9.53;71.19;99155.37;1773619;80;21793;-40
2022/10/31 01:00:56;;;;;;;9.88;2.45;;;;;;;9.51;71.22;99160.91;1766522;81;21001;-40
2022/10/31 01:03:25;;;;;;;8.80;1.77;;;;;;;9.47;71.38;99147.89;1766684;81;21036;-41
2022/10/31 01:06:08;;;;;;;7.58;2.10;;;;;;;9.47;71.39;99158.71;1766761;81;21036;-41
2022/10/31 01:08:37;;;;;;;6.55;2.20;;;;;;;9.47;71.38;99144.62;1766600;81;21351;-41
2022/10/31 01:11:17;;;;;;;9.53;2.02;;;;;;;9.45;71.49;99154.21;1766867;81;21296;-41
2022/10/31 01:13:44;;;;;;;6.90;2.62;;;;;;;9.45;71.47;99157.70;1766655;81;21037;-41
2022/10/31 01:16:15;;;;;;;4.90;1.77;;;;;;;9.42;71.53;99157.08;1766709;81;20981;-41
2022/10/31 01:18:41;;;;;;;4.37;2.02;;;;;;;9.40;71.57;99160.70;1767063;81;21562;-40
2022/10/31 01:21:24;;;;;;;6.85;2.20;;;;;;;9.43;71.57;99167.33;1766973;81;21517;-41
2022/10/31 01:23:55;;;;;;;5.33;1.90;;;;;;;9.46;71.55;99169.31;1766699;81;21258;-40
2022/10/31 01:26:27;;;;;;;6.83;2.25;;;;;;;9.49;71.50;99168.59;1766601;81;21485;-41
2022/10/31 01:28:57;;;;;;;5.62;1.82;;;;;;;9.46;71.45;99166.05;1766764;81;20956;-41
2022/10/31 01:31:28;;;;;;;5.65;2.12;;;;;;;9.49;71.41;99165.89;1766966;81;20972;-40
2022/10/31 01:33:55;;;;;;;4.97;1.90;;;;;;;9.53;71.23;99165.41;1766919;81;23956;-41
2022/10/31 01:36:26;;;;;;;6.00;1.90;;;;;;;9.57;71.18;99168.97;1766706;81;23123;-41
2022/10/31 01:38:56;;;;;;;6.08;2.02;;;;;;;9.58;71.04;99165.13;1766653;81;21484;-41
2022/10/31 01:41:29;;;;;;;8.65;2.52;;;;;;;9.57;70.91;99174.38;1767152;81;26535;-41
2022/10/31 01:43:59;;;;;;;7.65;1.90;;;;;;;9.54;70.91;99171.02;1766835;81;21475;-41
2022/10/31 01:46:33;;;;;;;8.05;2.30;;;;;;;9.51;70.93;99171.73;1766892;81;21048;-40
2022/10/31 01:49:04;;;;;;;5.85;1.70;;;;;;;9.54;70.86;99162.90;1766658;81;21938;-41
2022/10/31 01:51:36;;;;;;;7.53;2.02;;;;;;;9.54;70.78;99150.15;1761821;81;21622;-41
2022/10/31 01:54:09;;;;;;;7.55;2.05;;;;;;;9.49;70.77;99161.83;1766667;81;21716;-41
2022/10/31 01:56:40;;;;;;;4.97;1.67;;;;;;;9.45;70.89;99170.45;1766547;81;21698;-41
2022/10/31 01:59:10;;;;;;;4.33;1.95;;;;;;;9.44;70.90;99165.61;1766741;80;21036;-41
2022/10/31 02:01:38;;;;;;;8.88;1.92;;;;;;;9.50;70.71;99166.89;1743646;81;21042;-41
2022/10/31 02:04:05;;;;;;;5.30;2.15;;;;;;;9.53;70.61;99169.47;1742999;81;21011;-40
2022/10/31 02:06:42;;;;;;;6.10;1.70;;;;;;;9.52;70.59;99174.09;1766813;81;20909;-41
2022/10/31 02:09:11;;;;;;;7.35;2.00;;;;;;;9.51;70.53;99172.52;1766622;80;21027;-41
2022/10/31 02:11:38;;;;;;;3.45;1.57;;;;;;;9.49;70.53;99176.71;1766815;81;21602;-41
2022/10/31 02:14:06;;;;;;;5.75;1.57;;;;;;;9.44;70.60;99176.42;1761554;81;21105;-41
2022/10/31 02:16:33;;;;;;;9.05;2.40;;;;;;;9.45;70.59;99176.65;1766468;81;21081;-41
2022/10/31 02:19:01;;;;;;;8.05;2.02;;;;;;;9.46;70.61;99180.14;1766582;81;21510;-41
2022/10/31 02:21:54;;;;;;;8.40;1.57;;;;;;;9.44;70.56;99187.84;1766532;81;21662;-41
2022/10/31 02:25:05;;;;;;;6.15;1.70;;;;;;;9.39;70.61;99186.78;1763248;80;21091;-40
2022/10/31 02:28:02;;;;;;;6.62;1.75;;;;;;;9.26;70.94;99191.52;1717491;81;21109;-40
2022/10/31 02:31:07;;;;;;;4.87;2.02;;;;;;;9.22;71.18;99193.37;1742721;81;20969;-41
2022/10/31 02:33:55;;;;;;;8.25;2.30;;;;;;;9.25;71.13;99204.82;1766533;81;21012;-41
2022/10/31 02:36:34;;;;;;;9.68;2.47;;;;;;;9.22;71.19;99212.30;1766677;81;21605;-41
2022/10/31 02:39:24;;;;;;;4.70;2.08;;;;;;;9.19;71.21;99217.08;1766592;81;21092;-40
2022/10/31 02:42:19;;;;;;;4.80;1.82;;;;;;;9.15;71.18;99216.98;1766623;81;21236;-41
2022/10/31 02:44:56;;;;;;;5.90;1.80;;;;;;;9.13;71.28;99223.89;1744024;81;21017;-41
2022/10/31 02:47:32;;;;;;;5.17;1.87;;;;;;;9.16;71.35;99225.31;1766621;81;20968;-41
2022/10/31 02:50:21;;;;;;;8.55;2.10;;;;;;;9.18;71.50;99235.00;1766909;81;21069;-41
2022/10/31 02:52:52;;;;;;;11.45;2.05;;;;;;;9.16;71.62;99239.40;1766779;81;21036;-40
2022/10/31 02:55:31;;;;;;;6.85;1.85;;;;;;;9.12;71.75;99232.56;1766853;81;21081;-41
2022/10/31 02:58:12;;;;;;;3.87;1.85;;;;;;;9.14;71.89;99237.06;1766625;80;20977;-41
2022/10/31 03:00:46;;;;;;;4.58;1.82;;;;;;;9.24;71.63;99240.36;1766509;81;21017;-41
2022/10/31 03:03:17;;;;;;;8.10;2.33;;;;;;;9.28;71.46;99239.30;1766346;81;21052;-41
2022/10/31 03:06:20;;;;;;;5.85;2.10;;;;;;;9.26;71.17;99247.53;1766679;81;21518;-41
2022/10/31 03:09:03;;;;;;;5.30;1.75;;;;;;;9.26;71.17;99250.24;1766075;81;21240;-41
2022/10/31 03:11:42;;;;;;;9.25;2.05;;;;;;;9.27;70.84;99250.46;1766550;81;20985;-40
2022/10/31 03:14:17;;;;;;;9.13;1.85;;;;;;;9.29;70.65;99256.31;1762111;81;21096;-41
2022/10/31 03:16:48;;;;;;;7.78;1.98;;;;;;;9.29;70.55;99265.78;1761530;81;21103;-41
2022/10/31 03:19:30;;;;;;;4.35;2.12;;;;;;;9.29;70.45;99267.14;1742851;81;20977;-41
2022/10/31 03:22:06;;;;;;;6.67;1.98;;;;;;;9.27;70.42;99265.34;1766166;81;21146;-41
2022/10/31 03:24:37;;;;;;;6.15;1.90;;;;;;;9.26;70.31;99273.23;1761940;81;21697;-41
2022/10/31 03:27:04;;;;;;;4.83;1.77;;;;;;;9.26;70.13;99274.58;1767017;81;20997;-41
2022/10/31 03:29:33;;;;;;;6.58;1.87;;;;;;;9.28;70.09;99279.09;1766409;81;20985;-41
2022/10/31 03:32:16;;;;;;;6.00;2.22;;;;;;;9.26;69.91;99280.78;1767100;81;20993;-41
2022/10/31 03:34:45;;;;;;;9.10;2.30;;;;;;;9.21;69.97;99278.91;1766624;81;21176;-41
2022/10/31 03:37:16;;;;;;;6.80;1.98;;;;;;;9.11;70.08;99282.94;1766771;81;20961;-41
2022/10/31 03:39:44;;;;;;;5.15;1.80;;;;;;;9.04;70.19;99287.63;1766723;81;21038;-41
2022/10/31 03:42:21;;;;;;;5.53;1.90;;;;;;;9.01;70.18;99295.08;1766811;81;21514;-41
2022/10/31 03:44:59;;;;;;;11.20;1.92;;;;;;;9.06;70.20;99298.08;1766855;81;21511;-41
2022/10/31 03:47:27;;;;;;;6.70;2.17;;;;;;;9.08;70.23;99303.38;1766987;81;21077;-41
2022/10/31 03:49:55;;;;;;;7.20;2.02;;;;;;;9.05;70.07;99295.94;1766497;81;20941;-41
2022/10/31 03:52:39;;;;;;;7.20;2.00;;;;;;;8.98;70.13;99302.55;1766473;81;20936;-41
2022/10/31 03:55:11;;;;;;;5.83;2.02;;;;;;;8.92;70.11;99302.59;1766517;81;21615;-41
2022/10/31 03:58:19;;;;;;;6.22;1.98;;;;;;;8.88;70.12;99315.23;1766823;81;21008;-41
2022/10/31 04:00:47;;;;;;;5.53;1.60;;;;;;;8.86;70.03;99313.44;1784943;80;23162;-41
2022/10/31 04:03:19;;;;;;;4.75;1.92;;;;;;;8.81;70.03;99311.59;1754826;80;21031;-41
2022/10/31 04:05:47;;;;;;;5.83;1.82;;;;;;;8.80;70.02;99310.80;1729845;80;20960;-41
2022/10/31 04:08:17;;;;;;;8.75;1.98;;;;;;;8.77;69.81;99310.69;1785290;80;20939;-41
2022/10/31 04:13:39;;;;;;;4.40;1.80;;;;;;;8.76;69.67;99324.01;1797356;79;22704;-41
2022/10/31 04:16:09;;;;;;;5.25;1.55;;;;;;;8.72;69.75;99323.33;1757075;81;20985;-40
2022/10/31 04:18:36;;;;;;;9.03;1.95;;;;;;;8.76;69.50;99328.06;1757231;81;21511;-40
2022/10/31 04:21:06;;;;;;;5.05;1.22;;;;;;;8.73;69.31;99337.63;1757041;81;20946;-40
2022/10/31 04:23:35;;;;;;;6.90;1.70;;;;;;;8.71;69.19;99335.86;1757273;81;20949;-41
2022/10/31 04:26:05;;;;;;;4.62;1.70;;;;;;;8.67;68.80;99332.25;1723236;83;20996;-41
2022/10/31 04:28:33;;;;;;;4.90;1.67;;;;;;;8.66;68.80;99343.66;1723477;83;20956;-40
2022/10/31 04:31:00;;;;;;;5.70;1.72;;;;;;;8.68;68.60;99335.19;1723627;83;21291;-41
2022/10/31 04:33:28;;;;;;;6.72;1.60;;;;;;;8.67;68.42;99344.42;1723448;83;20964;-41
2022/10/31 04:35:55;;;;;;;4.20;1.67;;;;;;;8.65;68.31;99349.41;1723759;83;21608;-40
2022/10/31 04:38:22;;;;;;;4.85;1.70;;;;;;;8.65;68.00;99353.45;1723494;83;21020;-40
2022/10/31 04:40:49;;;;;;;4.37;1.30;;;;;;;8.66;68.01;99359.09;1723705;83;21015;-41
2022/10/31 04:43:34;;;;;;;3.50;1.60;;;;;;;8.66;67.51;99352.33;1723631;83;21136;-40
2022/10/31 04:46:01;;;;;;;4.80;1.60;;;;;;;8.65;67.34;99357.51;1723575;83;20882;-41
2022/10/31 04:48:28;;;;;;;5.00;1.37;;;;;;;8.69;67.12;99359.73;1723732;83;20984;-41
2022/10/31 04:51:00;;;;;;;5.95;1.75;;;;;;;8.71;67.08;99361.53;1723565;83;20938;-40
2022/10/31 04:53:27;;;;;;;4.55;1.62;;;;;;;8.69;66.90;99374.59;1723527;83;21028;-40
2022/10/31 04:56:13;;;;;;;3.15;1.70;;;;;;;8.66;66.77;99374.73;1723668;83;21132;-41
2022/10/31 04:58:41;;;;;;;4.67;1.50;;;;;;;8.62;66.87;99377.09;1723340;83;21541;-41
2022/10/31 05:01:10;;;;;;;6.78;1.52;;;;;;;8.60;66.84;99378.81;1723647;83;20980;-41
2022/10/31 05:03:39;;;;;;;2.20;1.37;;;;;;;8.56;66.72;99389.31;1723600;83;21071;-41
2022/10/31 05:06:07;;;;;;;2.42;1.15;;;;;;;8.53;66.66;99395.39;1720444;81;21089;-41
2022/10/31 05:08:34;;;;;;;3.83;1.45;;;;;;;8.53;66.57;99393.47;1715581;83;21266;-40
2022/10/31 05:11:04;;;;;;;3.80;1.40;;;;;;;8.58;66.32;99405.38;1708047;84;21029;-41
2022/10/31 05:13:32;;;;;;;3.37;1.27;;;;;;;8.57;65.97;99415.17;1697163;83;21530;-41
2022/10/31 05:16:15;;;;;;;4.95;1.62;;;;;;;8.55;65.56;99421.52;1710717;83;21052;-41
2022/10/31 05:19:00;;;;;;;3.45;1.20;;;;;;;8.50;65.32;99416.35;1701197;84;21523;-41
2022/10/31 05:21:39;;;;;;;4.50;1.37;;;;;;;8.48;65.03;99432.11;1657953;83;21257;-41
2022/10/31 05:24:09;;;;;;;4.30;1.42;;;;;;;8.45;64.68;99444.95;1700704;84;20957;-40
2022/10/31 05:26:38;;;;;;;2.42;1.00;;;;;;;8.44;64.41;99447.44;1710263;83;20972;-41
2022/10/31 05:29:04;;;;;;;8.05;1.40;;;;;;;8.40;64.16;99450.05;1700676;84;21515;-41
2022/10/31 05:31:32;;;;;;;3.52;1.47;;;;;;;8.38;63.93;99460.95;1710073;83;21076;-41
2022/10/31 05:34:01;;;;;;;3.80;1.20;;;;;;;8.34;63.66;99465.47;1700253;84;21246;-40
2022/10/31 07:24:12;;;;;;;1.77;0.78;;;;;;;9.56;52.24;99588.24;1830131;78;22767;-40
2022/10/31 07:26:42;;;;;;;;;;;;;;;9.64;51.55;99595.41;1795242;79;20955;-40
2022/10/31 07:29:09;;;;;;;2.77;0.70;;;;;;;9.66;51.04;99584.25;1784719;80;21085;-40
2022/10/31 07:31:38;;;;;;;2.62;0.90;;;;;;;9.60;51.13;99590.47;1784493;80;21554;-40
2022/10/31 07:34:07;;;;;;;1.72;0.95;;;;;;;9.63;50.32;99591.16;1784501;80;20919;-40
2022/10/31 07:36:52;;;;;;;3.15;1.10;;;;;;;9.65;50.35;99596.98;1784641;80;20998;-40
2022/10/31 07:39:19;;;;;;;1.82;0.80;;;;;;;9.67;49.42;99600.15;1784845;79;20947;-40
2022/10/31 07:41:48;;;;;;;2.52;0.90;;;;;;;9.72;49.45;99603.16;1784918;79;21276;-40
2022/10/31 07:44:17;;;;;;;1.90;1.05;;;;;;;9.76;48.79;99598.06;1785178;79;20943;-40
2022/10/31 07:46:52;;;;;;;3.02;0.70;;;;;;;9.81;48.83;99607.28;1784964;79;21059;-40
2022/10/31 07:49:30;;;;;;;3.77;0.80;;;;;;;9.84;48.03;99603.87;1781247;80;21725;-41
2022/10/31 07:52:15;;;;;;;1.87;0.90;;;;;;;9.87;47.58;99611.87;1784796;80;20979;-41
2022/10/31 07:55:00;;;;;;;1.30;0.70;;;;;;;9.86;47.10;99602.97;1784730;79;21213;-41
2022/10/31 07:57:28;;;;;;;1.90;0.70;;;;;;;9.85;46.56;99606.80;1784545;80;21303;-41
2022/10/31 07:59:55;;;;;;;2.77;0.80;;;;;;;9.87;46.82;99616.73;1784736;80;20919;-41
2022/10/31 08:02:23;;;;;;;1.67;0.70;;;;;;;9.89;46.25;99613.66;1784477;80;21011;-40
2022/10/31 08:04:49;;;;;;;1.65;0.80;;;;;;;9.91;46.40;99616.25;1784596;80;21006;-41
2022/10/31 08:07:36;;;;;;;1.30;0.88;;;;;;;9.97;46.33;99609.41;1784485;79;21110;-40
2022/10/31 08:10:05;;;;;;;4.65;0.82;;;;;;;9.99;45.19;99618.55;1764738;80;21041;-41
2022/10/31 08:12:32;;;;;;;1.53;0.67;;;;;;;10.02;45.74;99625.41;1784916;79;21581;-41
2022/10/31 08:14:59;;;;;;;2.00;0.90;;;;;;;10.09;45.50;99618.60;1784768;80;21488;-41
2022/10/31 08:17:27;;;;;;;1.50;0.72;;;;;;;10.17;45.19;99618.45;1784561;80;20967;-41
2022/10/31 08:19:59;;;;;;;1.90;0.80;;;;;;;10.26;45.52;99621.00;1784474;79;23183;-41
2022/10/31 08:22:27;;;;;;;2.95;0.93;;;;;;;10.37;45.00;99622.81;1783011;79;20979;-41
2022/10/31 08:24:55;;;;;;;3.00;1.00;;;;;;;10.44;43.90;99611.36;1784879;80;20974;-41
2022/10/31 08:27:23;;;;;;;4.55;0.88;;;;;;;10.53;43.96;99626.08;1784843;80;21023;-41
2022/10/31 08:29:50;;;;;;;2.58;0.72;;;;;;;10.60;43.35;99622.95;1784971;80;21030;-41
2022/10/31 08:32:19;;;;;;;1.30;0.60;;;;;;;10.65;42.61;99624.62;1784818;79;22068;-41
2022/10/31 08:34:58;;;;;;;2.00;0.90;;;;;;;10.40;41.66;99587.46;1784607;79;20955;-41
2022/10/31 08:37:44;;;;;;;2.25;0.90;;;;;;;10.65;42.26;99624.62;1784528;79;21592;-41
2022/10/31 08:40:12;;;;;;;1.52;0.90;;;;;;;10.65;41.54;99628.70;1784404;80;20976;-41
2022/10/31 08:42:40;;;;;;;1.07;0.70;;;;;;;10.68;41.78;99636.91;1784537;80;21023;-41
2022/10/31 08:45:09;;;;;;;2.37;0.70;;;;;;;10.72;42.46;99639.12;1784343;80;21120;-41
2022/10/31 08:47:36;;;;;;;1.40;0.78;;;;;;;10.52;41.73;99594.11;1764335;80;21085;-41
2022/10/31 08:50:03;;;;;;;2.72;0.70;;;;;;;10.86;41.53;99638.64;1784370;79;21019;-41
2022/10/31 08:52:30;;;;;;;3.83;0.60;;;;;;;10.90;41.66;99636.22;1784669;80;21082;-41
2022/10/31 08:54:59;;;;;;;1.37;0.70;;;;;;;10.96;41.43;99633.23;1784412;79;21024;-41
2022/10/31 08:57:45;;;;;;;0.85;0.60;;;;;;;11.01;41.27;99635.10;1784506;79;23118;-41
2022/10/31 09:00:13;;;;;;;1.70;0.70;;;;;;;11.12;40.84;99635.34;1784382;80;20990;-41
2022/10/31 09:03:04;;;;;;;3.15;2.00;;;;;;;11.15;39.59;99636.76;1784036;80;21077;-41
2022/10/31 09:05:33;;;;;;;2.35;1.50;;;;;;;11.17;40.11;99639.91;1784589;80;21519;-41
2022/10/31 09:08:02;;;;;;;3.50;1.90;;;;;;;11.20;40.48;99639.76;1778703;80;21034;-41
2022/10/31 09:10:32;;;;;;;3.45;1.80;;;;;;;11.27;40.32;99639.35;1784396;80;21124;-41
2022/10/31 09:13:10;;;;;;;2.12;0.90;;;;;;;11.38;40.60;99637.39;1784442;79;21473;-41
2022/10/31 09:15:56;;;;;;;3.25;1.35;;;;;;;11.44;39.73;99642.19;1784362;79;20986;-41
2022/10/31 09:18:24;;;;;;;7.50;2.00;;;;;;;11.50;39.12;99633.98;1784698;80;21548;-40
2022/10/31 09:21:01;;;;;;;4.20;1.80;;;;;;;11.55;39.66;99635.05;1784218;80;21528;-41
2022/10/31 09:23:29;;;;;;;2.47;1.17;;;;;;;11.67;40.14;99628.66;1781599;79;21285;-41
2022/10/31 09:26:00;;;;;;;2.00;0.85;;;;;;;11.82;38.69;99629.73;1772540;80;20927;-41
2022/10/31 09:28:37;;;;;;;1.77;1.10;;;;;;;11.87;38.35;99638.38;1778858;79;20994;-41
2022/10/31 09:31:12;;;;;;;1.70;0.80;;;;;;;11.93;38.74;99641.02;1778831;80;21006;-41
2022/10/31 09:33:44;;;;;;;1.60;0.85;;;;;;;12.04;38.27;99627.05;1735550;80;21035;-41
2022/10/31 09:36:29;;;;;;;3.20;2.10;;;;;;;12.14;36.21;99630.52;1778832;79;21167;-41
2022/10/31 09:38:57;;;;;;;2.70;1.37;;;;;;;12.20;36.94;99624.19;1767783;80;20955;-41
2022/10/31 09:41:33;;;;;;;5.87;1.60;;;;;;;12.28;36.80;99625.89;1778528;80;21508;-41
2022/10/31 09:44:43;;;;;;;2.47;1.20;;;;;;;12.38;36.62;99621.20;1762811;80;20935;-41
2022/10/31 09:47:46;;;;;;;1.87;1.00;;;;;;;12.46;36.57;99635.11;1778279;79;21027;-40
2022/10/31 09:50:55;;;;;;;6.40;1.27;;;;;;;12.58;36.47;99615.09;1778892;80;21114;-41
2022/10/31 09:53:41;;;;;;;2.67;1.10;;;;;;;12.71;36.89;99618.38;1777567;79;20944;-41
2022/10/31 09:56:13;;;;;;;3.40;0.98;;;;;;;12.84;36.20;99622.44;1778897;80;21003;-40
2022/10/31 09:58:48;;;;;;;1.72;0.82;;;;;;;13.01;36.08;99616.47;1778850;79;20963;-41
2022/10/31 10:01:42;;;;;;;2.60;0.70;;;;;;;13.17;36.03;99621.16;1778818;79;20917;-41
2022/10/31 10:04:44;;;;;;;2.47;0.88;;;;;;;13.35;35.45;99607.20;1778835;80;21218;-41
2022/10/31 10:07:39;;;;;;;1.02;0.40;;;;;;;13.41;34.36;99622.03;1778560;79;21505;-41
2022/10/31 10:10:44;;;;;;;2.60;0.90;;;;;;;13.45;33.99;99618.80;1776484;80;20951;-41
2022/10/31 10:13:50;;;;;;;1.92;0.62;;;;;;;13.47;33.08;99636.89;1778680;79;20998;-41
2022/10/31 10:16:51;;;;;;;1.82;0.78;;;;;;;13.51;32.08;99624.67;1778854;79;21031;-41
2022/10/31 10:19:54;;;;;;;1.60;0.62;;;;;;;13.60;32.41;99634.72;1778744;80;21102;-41
2022/10/31 10:22:47;;;;;;;2.98;0.80;;;;;;;13.63;31.59;99630.45;1778629;80;20923;-41
2022/10/31 10:25:42;;;;;;;1.60;0.62;;;;;;;13.60;31.75;99627.91;1778889;79;21532;-41
2022/10/31 10:28:38;;;;;;;1.27;0.70;;;;;;;13.61;31.65;99625.94;1778631;80;21070;-41
2022/10/31 10:31:07;;;;;;;1.52;0.88;;;;;;;13.72;31.35;99620.03;1778610;79;20962;-41
2022/10/31 10:33:39;;;;;;;1.42;0.57;;;;;;;13.87;31.44;99627.20;1778549;79;21215;-41
2022/10/31 10:36:13;;;;;;;0.95;0.68;;;;;;;13.99;31.27;99634.34;1778611;79;21019;-41
2022/10/31 10:39:03;;;;;;;1.17;0.53;;;;;;;14.07;30.90;99629.93;1778678;80;20919;-41
2022/10/31 10:41:32;;;;;;;2.42;0.90;;;;;;;14.21;30.38;99632.78;1769545;80;21556;-41
2022/10/31 10:43:59;;;;;;;3.30;0.50;;;;;;;14.20;29.78;99633.14;1778760;80;21035;-41
2022/10/31 10:49:52;;;;;;;2.40;0.53;;;;;;;14.21;29.62;99628.69;1778938;80;21023;-41
2022/10/31 10:52:34;;;;;;;2.72;1.17;;;;;;;14.18;29.95;99618.55;1779174;80;21015;-41
2022/10/31 10:55:07;;;;;;;1.67;1.00;;;;;;;14.32;29.98;99627.42;1779051;80;21473;-41
2022/10/31 10:57:40;;;;;;;2.45;1.30;;;;;;;14.50;29.16;99626.21;1778734;79;21038;-41
2022/10/31 11:00:19;;;;;;;1.22;0.78;;;;;;;14.63;28.71;99624.16;1778622;80;23204;-41
2022/10/31 11:02:46;;;;;;;1.00;0.60;;;;;;;14.63;28.39;99618.70;1778893;80;21007;-41
2022/10/31 11:05:23;;;;;;;1.47;0.65;;;;;;;14.59;28.42;99615.75;1778620;80;21006;-41
2022/10/31 11:07:52;;;;;;;0.82;0.53;;;;;;;14.57;28.39;99623.55;1778821;79;21067;-41
2022/10/31 11:10:19;;;;;;;1.40;0.80;;;;;;;14.58;28.50;99619.63;1778665;79;21488;-41
2022/10/31 11:13:15;;;;;;;2.45;0.80;;;;;;;14.65;28.84;99619.69;1778617;79;21446;-41
2022/10/31 11:16:08;;;;;;;1.07;0.70;;;;;;;14.78;28.96;99619.57;1778641;80;21532;-41
2022/10/31 11:18:45;;;;;;;1.00;0.60;;;;;;;15.01;28.88;99615.20;1718160;83;21017;-41
2022/10/31 11:21:33;;;;;;;1.40;0.68;;;;;;;15.24;28.94;99615.72;1767285;80;20986;-41
2022/10/31 11:24:20;;;;;;;2.90;0.72;;;;;;;15.27;27.82;99618.25;1776373;79;20986;-41
2022/10/31 11:26:49;;;;;;;2.87;0.70;;;;;;;15.25;28.97;99619.24;1784287;80;21060;-41
2022/10/31 11:29:24;;;;;;;1.05;0.70;;;;;;;15.46;28.43;99623.40;1784105;79;20884;-41
2022/10/31 11:31:56;;;;;;;0.55;0.50;;;;;;;15.46;27.31;99629.66;1784233;79;21532;-41
2022/10/31 11:34:29;;;;;;;0.80;0.60;;;;;;;15.46;27.85;99617.36;1784347;79;21579;-41
2022/10/31 11:37:11;;;;;;;1.35;0.70;;;;;;;15.61;27.30;99615.48;1784357;80;21670;-41
2022/10/31 11:39:44;;;;;;;1.00;0.80;;;;;;;15.71;27.71;99625.66;1784274;80;21071;-41
2022/10/31 11:42:11;;;;;;;1.32;0.70;;;;;;;15.86;27.18;99614.17;1784298;80;20888;-41
2022/10/31 11:44:42;;;;;;;5.95;0.93;;;;;;;16.07;27.31;99620.43;1784467;80;21576;-41
2022/10/31 11:47:14;;;;;;;;;;;;;;;16.38;26.37;99617.52;1787027;79;21031;-41
2022/10/31 11:49:45;;;;;;;1.47;0.70;;;;;;;16.66;26.75;99618.09;1784243;80;20174;-41
2022/10/31 11:52:19;;;;;;;0.65;0.65;;;;;;;16.66;26.53;99618.09;1784313;80;21323;-41
2022/10/31 11:54:59;;;;;;;1.50;0.80;;;;;;;16.59;26.22;99625.55;1783433;80;21022;-41
2022/10/31 11:57:47;;;;;;;3.42;1.50;;;;;;;16.64;27.15;99634.15;1784301;79;20959;-41
2022/10/31 12:00:31;;;;;;;3.05;1.57;;;;;;;16.73;26.59;99624.94;1751723;80;20923;-41
2022/10/31 12:03:35;;;;;;;1.75;1.30;;;;;;;16.87;26.85;99629.02;1784127;79;21070;-41
2022/10/31 12:06:14;;;;;;;2.62;1.05;;;;;;;16.86;25.86;99616.49;1784274;79;21119;-41
2022/10/31 12:08:42;;;;;;;1.57;0.98;;;;;;;16.77;25.75;99622.97;1784298;79;27633;-41
2022/10/31 12:11:31;;;;;;;1.00;0.75;;;;;;;16.94;25.91;99615.29;1784727;80;21015;-41
2022/10/31 12:14:28;;;;;;;1.90;1.02;;;;;;;17.16;26.09;99612.48;1784415;79;21030;-41
2022/10/31 12:17:17;;;;;;;1.37;0.95;;;;;;;17.26;26.42;99607.56;1784434;80;21046;-43
2022/10/31 12:20:03;;;;;;;1.25;0.70;;;;;;;17.32;25.61;99610.09;1776925;80;21257;-41
2022/10/31 12:22:54;;;;;;;1.62;0.78;;;;;;;17.37;24.70;99619.27;1784077;80;21484;-41
2022/10/31 12:25:47;;;;;;;2.27;1.05;;;;;;;17.30;25.62;99617.91;1784378;79;20967;-41
2022/10/31 12:28:58;;;;;;;2.58;1.10;;;;;;;17.62;25.90;99628.77;1759474;80;21023;-41
2022/10/31 12:31:46;;;;;;;1.37;0.65;;;;;;;17.92;24.40;99615.83;1784398;79;21089;-41
2022/10/31 12:34:40;;;;;;;1.95;0.75;;;;;;;18.03;24.73;99618.70;1784540;79;21119;-42
2022/10/31 12:37:33;;;;;;;2.77;0.80;;;;;;;18.28;24.55;99629.50;1778732;80;21069;-42
2022/10/31 12:40:24;;;;;;;2.10;0.98;;;;;;;18.57;24.51;99630.84;1784512;80;21011;-42
2022/10/31 12:43:24;;;;;;;3.60;1.20;;;;;;;18.85;24.10;99624.88;1784399;80;21337;-42
2022/10/31 12:45:57;;;;;;;2.55;1.10;;;;;;;18.93;24.29;99624.38;1708387;83;21071;-42
2022/10/31 12:48:48;;;;;;;1.67;1.20;;;;;;;19.14;23.86;99621.22;1768335;80;21209;-42
2022/10/31 12:51:26;;;;;;;1.30;0.90;;;;;;;19.38;23.48;99623.67;1784355;80;20962;-42
2022/10/31 12:54:14;;;;;;;2.22;0.85;;;;;;;19.70;23.00;99623.89;1777997;80;20994;-42
2022/10/31 12:57:08;;;;;;;1.25;1.02;;;;;;;20.01;22.57;99622.63;1763927;80;21592;-42
2022/10/31 12:59:42;;;;;;;1.65;0.90;;;;;;;20.21;21.83;99626.84;1784105;80;20975;-42
2022/10/31 13:02:42;;;;;;;2.83;1.10;;;;;;;20.25;22.10;99629.72;1784359;80;21120;-42
2022/10/31 13:05:32;;;;;;;1.75;1.00;;;;;;;20.25;22.16;99622.84;1741288;80;21015;-42
2022/10/31 13:08:25;;;;;;;2.08;1.10;;;;;;;19.96;22.23;99625.25;1784116;80;21019;-42
2022/10/31 13:11:07;;;;;;;2.00;1.20;;;;;;;19.26;22.97;99624.23;1784004;80;21385;-42
2022/10/31 13:13:54;;;;;;;1.40;1.00;;;;;;;18.83;23.03;99630.02;1784242;79;21030;-42
2022/10/31 13:16:26;;;;;;;1.87;1.10;;;;;;;18.45;23.20;99638.16;1784276;79;21074;-42
2022/10/31 13:19:04;;;;;;;1.32;1.22;;;;;;;18.23;23.86;99643.06;1784423;80;20994;-42
2022/10/31 13:21:39;;;;;;;4.00;1.00;;;;;;;18.38;24.20;99639.61;1773005;80;21532;-42
2022/10/31 13:24:13;;;;;;;1.47;1.00;;;;;;;18.67;23.81;99645.66;1782953;79;21082;-42
2022/10/31 13:26:53;;;;;;;1.65;0.90;;;;;;;18.67;23.73;99642.91;1783273;79;21500;-42
2022/10/31 13:29:36;;;;;;;1.55;1.20;;;;;;;18.55;24.27;99653.80;1789974;79;23132;-42
2022/10/31 13:32:07;;;;;;;6.90;1.55;;;;;;;18.47;24.45;99650.91;1800106;79;20988;-42
2022/10/31 13:34:40;;;;;;;2.40;1.12;;;;;;;18.30;24.70;99647.69;1799991;79;21581;-42
2022/10/31 13:37:21;;;;;;;2.25;0.93;;;;;;;17.97;24.92;99648.33;1800243;79;21004;-41
2022/10/31 13:39:56;;;;;;;1.92;1.20;;;;;;;17.53;25.28;99654.41;1793711;79;21017;-41
2022/10/31 13:42:44;;;;;;;3.15;1.40;;;;;;;16.99;25.76;99664.02;1800020;79;21385;-42
2022/10/31 13:45:14;;;;;;;3.05;1.35;;;;;;;16.42;26.34;99666.17;1799827;78;20981;-41
2022/10/31 13:47:42;;;;;;;3.15;1.50;;;;;;;15.88;26.87;99676.84;1800126;79;20992;-42
2022/10/31 13:50:23;;;;;;;2.00;1.35;;;;;;;15.45;27.48;99673.16;1799940;79;21009;-42
2022/10/31 13:52:49;;;;;;;2.67;1.82;;;;;;;15.08;27.83;99682.94;1800177;79;21452;-41
2022/10/31 13:55:42;;;;;;;3.98;2.33;;;;;;;14.76;27.99;99681.35;1799979;79;21518;-41
2022/10/31 13:58:29;;;;;;;2.37;1.70;;;;;;;14.48;28.57;99688.53;1799798;79;20925;-41
2022/10/31 14:01:13;;;;;;;2.85;1.92;;;;;;;14.12;28.63;99691.51;1799453;79;21008;-41
2022/10/31 14:03:42;;;;;;;3.17;1.70;;;;;;;13.77;29.56;99690.55;1799769;79;21558;-41
2022/10/31 14:06:10;;;;;;;2.60;1.82;;;;;;;13.52;30.12;99692.19;1799946;79;20938;-41
2022/10/31 14:08:45;;;;;;;2.77;1.67;;;;;;;13.39;30.33;99697.10;1799515;79;21180;-41
2022/10/31 14:11:21;;;;;;;3.10;1.75;;;;;;;13.20;30.62;99692.58;1787445;79;20970;-41
2022/10/31 14:13:48;;;;;;;3.52;1.70;;;;;;;13.08;31.00;99702.28;1782708;80;21001;-41
2022/10/31 14:16:21;;;;;;;3.98;1.60;;;;;;;12.95;31.56;99702.30;1782645;79;21498;-42